DLH8PN ENGM-EDDM
Flight info
| Callsign | DLH8PN |
|---|---|
| Flight time | N/A |
| Altitude | 35000 |
| Route | OKSAT L996 KELIN DCT NEDIK DCT SODRO T703 LULAR T105 LANDU LANDU2A |
| Aircraft | A320/M-SDE2E3FGIJ1LORWXYZ/HB1 |
Departure
| Time | 2026-05-01 14:18 |
|---|---|
| Airport | Oslo-Gardermoen International Airport (ENGM) |
Arrival
| Time | N/A |
|---|---|
| Airport | Munich Airport (EDDM) |
| Time | Latitude | Longitude | Altitude | Speed | Heading |
|---|---|---|---|---|---|
| 2026-05-01 14:00 | 60.19559 | 11.09422 | 691 ft | 0 kts | 196° |
| 2026-05-01 14:09 | 60.19560 | 11.09422 | 691 ft | 2 kts | 196° |
| 2026-05-01 14:09 | 60.19584 | 11.09437 | 691 ft | 4 kts | 198° |
| 2026-05-01 14:09 | 60.19609 | 11.09454 | 684 ft | 4 kts | 201° |
| 2026-05-01 14:10 | 60.19634 | 11.09475 | 691 ft | 4 kts | 208° |
| 2026-05-01 14:10 | 60.19655 | 11.09506 | 691 ft | 4 kts | 236° |
| 2026-05-01 14:10 | 60.19661 | 11.09535 | 691 ft | 0 kts | 286° |
| 2026-05-01 14:12 | 60.19661 | 11.09532 | 691 ft | 0 kts | 286° |
| 2026-05-01 14:12 | 60.19666 | 11.09501 | 691 ft | 4 kts | 286° |
| 2026-05-01 14:12 | 60.19678 | 11.09418 | 691 ft | 8 kts | 287° |
| 2026-05-01 14:13 | 60.19699 | 11.09280 | 687 ft | 12 kts | 287° |
| 2026-05-01 14:13 | 60.19716 | 11.09161 | 689 ft | 14 kts | 282° |
| 2026-05-01 14:13 | 60.19753 | 11.08874 | 680 ft | 19 kts | 288° |
| 2026-05-01 14:13 | 60.19814 | 11.08704 | 682 ft | 16 kts | 1° |
| 2026-05-01 14:14 | 60.19921 | 11.08754 | 680 ft | 15 kts | 16° |
| 2026-05-01 14:14 | 60.20027 | 11.08817 | 680 ft | 16 kts | 16° |
| 2026-05-01 14:14 | 60.20121 | 11.08872 | 683 ft | 12 kts | 16° |
| 2026-05-01 14:14 | 60.20216 | 11.08924 | 680 ft | 24 kts | 15° |
| 2026-05-01 14:15 | 60.20392 | 11.09024 | 682 ft | 26 kts | 16° |
| 2026-05-01 14:15 | 60.20556 | 11.09123 | 683 ft | 23 kts | 15° |
| 2026-05-01 14:15 | 60.20703 | 11.09202 | 685 ft | 20 kts | 15° |
| 2026-05-01 14:15 | 60.20830 | 11.09272 | 685 ft | 19 kts | 16° |
| 2026-05-01 14:16 | 60.20981 | 11.09366 | 682 ft | 27 kts | 17° |
| 2026-05-01 14:16 | 60.21182 | 11.09487 | 683 ft | 31 kts | 16° |
| 2026-05-01 14:16 | 60.21359 | 11.09588 | 682 ft | 26 kts | 16° |
| 2026-05-01 14:16 | 60.21493 | 11.09618 | 684 ft | 16 kts | 317° |
| 2026-05-01 14:17 | 60.21551 | 11.09441 | 684 ft | 15 kts | 288° |
| 2026-05-01 14:17 | 60.21578 | 11.09272 | 685 ft | 13 kts | 284° |
| 2026-05-01 14:17 | 60.21553 | 11.09135 | 684 ft | 7 kts | 201° |
| 2026-05-01 14:17 | 60.21542 | 11.09128 | 684 ft | 3 kts | 198° |
| 2026-05-01 14:18 | 60.21332 | 11.08999 | 684 ft | 69 kts | 196° |
| 2026-05-01 14:18 | 60.20659 | 11.08613 | 684 ft | 129 kts | 196° |
| 2026-05-01 14:18 | 60.19678 | 11.08048 | 1003 ft | 151 kts | 199° |
| 2026-05-01 14:18 | 60.19016 | 11.07657 | 1516 ft | 150 kts | 194° |
| 2026-05-01 14:19 | 60.17653 | 11.06788 | 2329 ft | 164 kts | 200° |
| 2026-05-01 14:19 | 60.16480 | 11.06153 | 2655 ft | 188 kts | 185° |
| 2026-05-01 14:19 | 60.15166 | 11.07092 | 3088 ft | 217 kts | 152° |
| 2026-05-01 14:19 | 60.13870 | 11.08898 | 3499 ft | 239 kts | 149° |
| 2026-05-01 14:20 | 60.12453 | 11.10939 | 4024 ft | 261 kts | 149° |
| 2026-05-01 14:20 | 60.09389 | 11.15381 | 5677 ft | 280 kts | 149° |
| 2026-05-01 14:20 | 60.07787 | 11.17685 | 6564 ft | 287 kts | 150° |
| 2026-05-01 14:21 | 60.06149 | 11.20023 | 7439 ft | 291 kts | 150° |
| 2026-05-01 14:21 | 60.04488 | 11.22381 | 8356 ft | 294 kts | 151° |
| 2026-05-01 14:21 | 60.02808 | 11.24759 | 9292 ft | 297 kts | 151° |
| 2026-05-01 14:22 | 59.99949 | 11.28774 | 10537 ft | 314 kts | 152° |
| 2026-05-01 14:22 | 59.98087 | 11.31351 | 10821 ft | 338 kts | 152° |
| 2026-05-01 14:22 | 59.96112 | 11.34089 | 11304 ft | 351 kts | 151° |
| 2026-05-01 14:22 | 59.94089 | 11.36916 | 12022 ft | 358 kts | 152° |
| 2026-05-01 14:23 | 59.92034 | 11.39792 | 12779 ft | 363 kts | 152° |
| 2026-05-01 14:23 | 59.89955 | 11.42700 | 13546 ft | 367 kts | 152° |
| 2026-05-01 14:23 | 59.87853 | 11.45635 | 14241 ft | 372 kts | 152° |
| 2026-05-01 14:23 | 59.85717 | 11.48607 | 14911 ft | 377 kts | 152° |
| 2026-05-01 14:24 | 59.83558 | 11.51609 | 15588 ft | 381 kts | 152° |
| 2026-05-01 14:24 | 59.81372 | 11.54633 | 16258 ft | 385 kts | 152° |
| 2026-05-01 14:24 | 59.79162 | 11.57673 | 16937 ft | 388 kts | 152° |
| 2026-05-01 14:24 | 59.76927 | 11.60745 | 17602 ft | 392 kts | 152° |
| 2026-05-01 14:25 | 59.74674 | 11.63850 | 18235 ft | 396 kts | 152° |
| 2026-05-01 14:25 | 59.72399 | 11.66987 | 18812 ft | 400 kts | 152° |
| 2026-05-01 14:25 | 59.70106 | 11.70143 | 19391 ft | 403 kts | 152° |
| 2026-05-01 14:25 | 59.67792 | 11.73316 | 19974 ft | 406 kts | 152° |
| 2026-05-01 14:26 | 59.65436 | 11.76417 | 20530 ft | 405 kts | 156° |
| 2026-05-01 14:26 | 59.60258 | 11.80411 | 21589 ft | 399 kts | 171° |
| 2026-05-01 14:26 | 59.57573 | 11.81909 | 22120 ft | 403 kts | 170° |
| 2026-05-01 14:27 | 59.54867 | 11.83416 | 22644 ft | 406 kts | 170° |
| 2026-05-01 14:27 | 59.52142 | 11.84945 | 23161 ft | 409 kts | 170° |
| 2026-05-01 14:27 | 59.49403 | 11.86496 | 23670 ft | 412 kts | 169° |
| 2026-05-01 14:28 | 59.43854 | 11.89631 | 24534 ft | 418 kts | 169° |
| 2026-05-01 14:28 | 59.41050 | 11.91198 | 24939 ft | 420 kts | 169° |
| 2026-05-01 14:28 | 59.38230 | 11.92763 | 25367 ft | 422 kts | 169° |
| 2026-05-01 14:28 | 59.35392 | 11.94327 | 25764 ft | 424 kts | 171° |
| 2026-05-01 14:29 | 59.32503 | 11.95321 | 26127 ft | 420 kts | 180° |
| 2026-05-01 14:29 | 59.29602 | 11.95387 | 26524 ft | 416 kts | 188° |
| 2026-05-01 14:30 | 59.20860 | 11.94393 | 27674 ft | 423 kts | 188° |
| 2026-05-01 14:30 | 59.17910 | 11.94078 | 28063 ft | 426 kts | 188° |
| 2026-05-01 14:30 | 59.14944 | 11.93765 | 28451 ft | 428 kts | 188° |
| 2026-05-01 14:31 | 59.08961 | 11.93134 | 29183 ft | 433 kts | 188° |
| 2026-05-01 14:31 | 59.05945 | 11.92811 | 29511 ft | 435 kts | 188° |
| 2026-05-01 14:31 | 59.02912 | 11.92484 | 29823 ft | 438 kts | 187° |
| 2026-05-01 14:31 | 58.99870 | 11.92160 | 30149 ft | 440 kts | 187° |
| 2026-05-01 14:32 | 58.96804 | 11.91834 | 30456 ft | 442 kts | 187° |
| 2026-05-01 14:32 | 58.93724 | 11.91504 | 30744 ft | 444 kts | 187° |
| 2026-05-01 14:32 | 58.90631 | 11.91169 | 31004 ft | 446 kts | 187° |
| 2026-05-01 14:32 | 58.87526 | 11.90827 | 31268 ft | 448 kts | 187° |
| 2026-05-01 14:33 | 58.84413 | 11.90487 | 31602 ft | 448 kts | 187° |
| 2026-05-01 14:33 | 58.81298 | 11.90295 | 31999 ft | 449 kts | 182° |
| 2026-05-01 14:33 | 58.78173 | 11.90902 | 32376 ft | 453 kts | 176° |
| 2026-05-01 14:33 | 58.75059 | 11.91765 | 32728 ft | 452 kts | 176° |
| 2026-05-01 14:34 | 58.71946 | 11.92626 | 33084 ft | 451 kts | 176° |
| 2026-05-01 14:34 | 58.68840 | 11.93481 | 33462 ft | 451 kts | 176° |
| 2026-05-01 14:34 | 58.65736 | 11.94326 | 33829 ft | 450 kts | 176° |
| 2026-05-01 14:34 | 58.62632 | 11.95161 | 34195 ft | 450 kts | 176° |
| 2026-05-01 14:35 | 58.59534 | 11.95997 | 34519 ft | 449 kts | 176° |
| 2026-05-01 14:35 | 58.56439 | 11.96834 | 34854 ft | 449 kts | 176° |
| 2026-05-01 14:35 | 58.53347 | 11.97671 | 35159 ft | 449 kts | 176° |
| 2026-05-01 14:35 | 58.50256 | 11.98502 | 35270 ft | 448 kts | 176° |
| 2026-05-01 14:36 | 58.47181 | 11.99327 | 35288 ft | 446 kts | 176° |
| 2026-05-01 14:36 | 58.41038 | 12.00983 | 35302 ft | 445 kts | 176° |
| 2026-05-01 14:37 | 58.34902 | 12.02618 | 35300 ft | 445 kts | 176° |
| 2026-05-01 14:37 | 58.28764 | 12.04241 | 35299 ft | 445 kts | 176° |
| 2026-05-01 14:38 | 58.22625 | 12.05434 | 35310 ft | 441 kts | 184° |
| 2026-05-01 14:38 | 58.16490 | 12.05437 | 35312 ft | 441 kts | 184° |
| 2026-05-01 14:39 | 58.10356 | 12.05450 | 35317 ft | 441 kts | 184° |
| 2026-05-01 14:39 | 58.04221 | 12.05480 | 35321 ft | 441 kts | 184° |
| 2026-05-01 14:40 | 57.98080 | 12.05506 | 35326 ft | 441 kts | 184° |
| 2026-05-01 14:40 | 57.91946 | 12.05521 | 35334 ft | 441 kts | 184° |
| 2026-05-01 14:41 | 57.85798 | 12.05542 | 35327 ft | 441 kts | 183° |
| 2026-05-01 14:41 | 57.79656 | 12.05567 | 35338 ft | 441 kts | 183° |
| 2026-05-01 14:42 | 57.73524 | 12.05572 | 35336 ft | 441 kts | 183° |
| 2026-05-01 14:42 | 57.67383 | 12.05583 | 35337 ft | 441 kts | 183° |
| 2026-05-01 14:43 | 57.61240 | 12.05608 | 35325 ft | 441 kts | 182° |
| 2026-05-01 14:43 | 57.55099 | 12.05636 | 35334 ft | 441 kts | 182° |
| 2026-05-01 14:44 | 57.48954 | 12.05655 | 35339 ft | 442 kts | 182° |
| 2026-05-01 14:44 | 57.39728 | 12.05663 | 35329 ft | 442 kts | 182° |
| 2026-05-01 14:45 | 57.30489 | 12.05703 | 35326 ft | 443 kts | 182° |
| 2026-05-01 14:46 | 57.24324 | 12.05732 | 35332 ft | 443 kts | 182° |
| 2026-05-01 14:46 | 57.15088 | 12.05755 | 35336 ft | 443 kts | 182° |
| 2026-05-01 14:47 | 57.08923 | 12.05779 | 35338 ft | 443 kts | 182° |
| 2026-05-01 14:48 | 56.99717 | 12.05798 | 35338 ft | 443 kts | 182° |
| 2026-05-01 14:48 | 56.90474 | 12.05837 | 35348 ft | 443 kts | 182° |
| 2026-05-01 14:49 | 56.78153 | 12.05864 | 35347 ft | 443 kts | 181° |
| 2026-05-01 14:50 | 56.65847 | 12.05885 | 35350 ft | 442 kts | 181° |
| 2026-05-01 14:51 | 56.56619 | 12.05923 | 35349 ft | 442 kts | 181° |
| 2026-05-01 14:52 | 56.47393 | 12.05968 | 35342 ft | 442 kts | 181° |
| 2026-05-01 14:53 | 56.38170 | 12.05988 | 35353 ft | 442 kts | 181° |
| 2026-05-01 14:53 | 56.32027 | 12.05989 | 35349 ft | 441 kts | 181° |
| 2026-05-01 14:54 | 56.25888 | 12.06006 | 35347 ft | 441 kts | 181° |
| 2026-05-01 14:54 | 56.19753 | 12.06038 | 35344 ft | 441 kts | 181° |
| 2026-05-01 14:55 | 56.13613 | 12.06058 | 35345 ft | 441 kts | 181° |
| 2026-05-01 14:55 | 56.07465 | 12.06076 | 35343 ft | 442 kts | 181° |
| 2026-05-01 14:56 | 56.01313 | 12.06087 | 35345 ft | 442 kts | 181° |
| 2026-05-01 14:56 | 55.95161 | 12.06102 | 35346 ft | 442 kts | 181° |
| 2026-05-01 14:57 | 55.89016 | 12.06122 | 35352 ft | 441 kts | 181° |
| 2026-05-01 14:57 | 55.79809 | 12.06145 | 35354 ft | 441 kts | 181° |
| 2026-05-01 14:58 | 55.73672 | 12.06152 | 35352 ft | 441 kts | 181° |
| 2026-05-01 14:58 | 55.67539 | 12.06165 | 35350 ft | 440 kts | 180° |
| 2026-05-01 14:59 | 55.61415 | 12.06202 | 35355 ft | 440 kts | 181° |
| 2026-05-01 14:59 | 55.55298 | 12.06222 | 35351 ft | 439 kts | 180° |
| 2026-05-01 15:00 | 55.46126 | 12.06226 | 35351 ft | 439 kts | 181° |
| 2026-05-01 15:01 | 55.40021 | 12.06255 | 35354 ft | 439 kts | 181° |
| 2026-05-01 15:01 | 55.33908 | 12.06279 | 35349 ft | 439 kts | 181° |
| 2026-05-01 15:02 | 55.27796 | 12.06279 | 35352 ft | 439 kts | 181° |
| 2026-05-01 15:02 | 55.21682 | 12.06291 | 35354 ft | 439 kts | 181° |
| 2026-05-01 15:03 | 55.15563 | 12.06322 | 35353 ft | 439 kts | 180° |
| 2026-05-01 15:03 | 55.09453 | 12.06359 | 35358 ft | 439 kts | 180° |
| 2026-05-01 15:04 | 55.04384 | 12.06366 | 35361 ft | 439 kts | 180° |
| 2026-05-01 15:04 | 54.98277 | 12.06366 | 35360 ft | 439 kts | 180° |
| 2026-05-01 15:05 | 54.92168 | 12.06380 | 35362 ft | 439 kts | 180° |
| 2026-05-01 15:05 | 54.86053 | 12.06391 | 35347 ft | 440 kts | 180° |
| 2026-05-01 15:06 | 54.79930 | 12.06411 | 35352 ft | 440 kts | 180° |
| 2026-05-01 15:06 | 54.73804 | 12.06427 | 35357 ft | 440 kts | 180° |
| 2026-05-01 15:07 | 54.67679 | 12.06443 | 35360 ft | 440 kts | 180° |
| 2026-05-01 15:07 | 54.61555 | 12.06462 | 35357 ft | 440 kts | 179° |
| 2026-05-01 15:08 | 54.55441 | 12.06480 | 35363 ft | 440 kts | 180° |
| 2026-05-01 15:08 | 54.49325 | 12.06493 | 35358 ft | 439 kts | 180° |
| 2026-05-01 15:09 | 54.43209 | 12.06305 | 35359 ft | 440 kts | 182° |
| 2026-05-01 15:09 | 54.37090 | 12.05830 | 35359 ft | 440 kts | 182° |
| 2026-05-01 15:10 | 54.30968 | 12.05347 | 35363 ft | 440 kts | 182° |
| 2026-05-01 15:10 | 54.21781 | 12.04754 | 35366 ft | 440 kts | 182° |
| 2026-05-01 15:11 | 54.12598 | 12.04182 | 35359 ft | 440 kts | 181° |
| 2026-05-01 15:12 | 54.06472 | 12.03795 | 35361 ft | 440 kts | 181° |
| 2026-05-01 15:12 | 53.97284 | 12.03211 | 35359 ft | 440 kts | 181° |
| 2026-05-01 15:14 | 53.82069 | 12.02262 | 35354 ft | 441 kts | 181° |
| 2026-05-01 15:14 | 53.72886 | 12.01680 | 35352 ft | 440 kts | 181° |
| 2026-05-01 15:15 | 53.60647 | 12.00917 | 35347 ft | 440 kts | 181° |
| 2026-05-01 15:16 | 53.48372 | 12.00148 | 35341 ft | 442 kts | 181° |
| 2026-05-01 15:18 | 53.32976 | 11.99207 | 35348 ft | 443 kts | 181° |
| 2026-05-01 15:19 | 53.20630 | 11.98451 | 35353 ft | 444 kts | 181° |
| 2026-05-01 15:19 | 53.11369 | 11.97881 | 35351 ft | 444 kts | 181° |
| 2026-05-01 15:20 | 53.02100 | 11.97326 | 35347 ft | 444 kts | 181° |
| 2026-05-01 15:21 | 52.95927 | 11.96951 | 35347 ft | 444 kts | 181° |
| 2026-05-01 15:21 | 52.89747 | 11.96578 | 35349 ft | 444 kts | 181° |
| 2026-05-01 15:22 | 52.80477 | 11.96034 | 35350 ft | 445 kts | 181° |
| 2026-05-01 15:22 | 52.74287 | 11.95667 | 35356 ft | 445 kts | 181° |
| 2026-05-01 15:23 | 52.68097 | 11.95289 | 35357 ft | 445 kts | 181° |
| 2026-05-01 15:23 | 52.61911 | 11.94906 | 35352 ft | 445 kts | 181° |
| 2026-05-01 15:24 | 52.55722 | 11.94543 | 35349 ft | 445 kts | 181° |
| 2026-05-01 15:24 | 52.49527 | 11.94190 | 35350 ft | 445 kts | 181° |
| 2026-05-01 15:25 | 52.43332 | 11.93815 | 35355 ft | 445 kts | 181° |
| 2026-05-01 15:25 | 52.37142 | 11.93448 | 35354 ft | 446 kts | 181° |
| 2026-05-01 15:26 | 52.30939 | 11.93096 | 35354 ft | 446 kts | 181° |
| 2026-05-01 15:26 | 52.24727 | 11.92740 | 35361 ft | 447 kts | 181° |
| 2026-05-01 15:27 | 52.18503 | 11.92368 | 35360 ft | 448 kts | 181° |
| 2026-05-01 15:28 | 52.09153 | 11.91816 | 35361 ft | 449 kts | 181° |
| 2026-05-01 15:28 | 52.02941 | 11.91464 | 35364 ft | 449 kts | 181° |
| 2026-05-01 15:29 | 51.93581 | 11.90930 | 35371 ft | 449 kts | 181° |
| 2026-05-01 15:30 | 51.81076 | 11.90211 | 35372 ft | 450 kts | 181° |
| 2026-05-01 15:31 | 51.62313 | 11.89119 | 35364 ft | 449 kts | 181° |
| 2026-05-01 15:32 | 51.49822 | 11.88431 | 35364 ft | 450 kts | 181° |
| 2026-05-01 15:34 | 51.31059 | 11.87368 | 35362 ft | 451 kts | 181° |